Share

Paramaribo, Suriname

Tammenga (IPARAMAR5) Hoogte 7 ft | 5.82 °N, 55.22 °W | Change Station

Current weather conditions updated 3 minutes ago

Geheel bewolkt
Geheel bewolkt
86.4 °F
Voelt als 95 °F
N
8.0
Wind Variabel Wind van ONO
Gusts 18.0 mijl/u
Zonsopkomst 6:31 AM
Zonsondergang 6:47 PM
Maan Afnemende maan

Er wordt verwacht dat het vandaag koeler is dan gisteren. Verspreide onweersbuien..

Druk 29.95 inches
Zicht 6.2 mijlen
Wolken Merendeels bewolkt 1200 ft
Warmteindex 95 °F
Dauwpunt 74 °F
Vochtigheid 67%
Neerslag 0.00 inches
Dikte sneeuw Niet beschikbaar.
UV 8 van de 16
Pollen Niet beschikbaar.
Luchtkwaliteit Niet beschikbaar.
Flu Activity Niet beschikbaar.
METAR SMZO 191400Z 02010KT 9999 -SHRA BKN012 29/24 Q1014 NOSIG

More Conditions Fewer Conditions

Druk 29.95 inches
Zicht 6.2 mijlen
Wolken Merendeels bewolkt 1200 ft
Warmteindex 95 °F
Dauwpunt 74 °F
Vochtigheid 67%
Neerslag 0.00 inches
Dikte sneeuw Niet beschikbaar.
UV 8 van de 16
Pollen Niet beschikbaar.
Luchtkwaliteit Niet beschikbaar.
Flu Activity Niet beschikbaar.
METAR SMZO 191400Z 02010KT 9999 -SHRA BKN012 29/24 Q1014 NOSIG

More Conditions Fewer Conditions

10-Day Weather Forecast

Almanac

Astronomie

Apr. 19, 2014 Opkomst Ondergang
Werkelijke tijd 6:31 AM SRT 6:47 PM SRT
Burgerlijke schemering 6:10 AM SRT 7:09 PM SRT
Nautische schemering 5:45 AM SRT 7:33 PM SRT
Astronomische schemering 5:21 AM SRT 7:58 PM SRT
Maan 10:58 PM SRT 10:11 AM SRT
Golflengte van het zichtbare licht 12h 58m
Daglengte
12h 16m
Tomorrow will be 0m 17s longer.
Afnemende maan, 79% of the Moon is Illuminated
Vandaag
Afnemende maan
apr 22
Laatste kwartier
apr 29
Nieuw
mei 6
Eerste kwartier
mei 14
Volle maan

Extremen vandaag

Country Highs Country Lows

Community

  • A Glorious Morning
    A Glorious Morning
  • Bleeding Hearts
    Bleeding Hearts
  • Sunset Silhouettes
    Sunset Silhouettes
  • FL sunset Perico Isle
    FL sunset Perico Isle
  • La Conner
    La Conner

WunderPhotos

Upload Photos

1,702,742 foto’s ge-upload!

Nearby

Luchtkwaliteit

Not available.

Dikte sneeuw

Not available.

Watertemperatuur langs de kust

Plaats Temperatuur
Geen meldingen van stations

Aardbevingen

Stad Distance Mag. Time & Date
No recent earthquake activity has been reported nearby.
Minimum magnitude displayed is 2.5.

Nabije weerstations

Locatie station Temp. Warmteindex Dauwpunt Vochtigheid Wind Precip. Hoogte Geactualiseerd Type
Tammenga, Paramaribo 86.4 °F 95 °F 74 °F 67% ONO  op  8.0 mijl/u 0.00 inches / hr 7 ft 11:25 AM SRT Normaal

Show More Stations Show Fewer Stations

What do you think?

We're not finished. Please let us know what you like, what you don't like, and what you are still missing.